sensor_id;sensor_type;location;lat;lon;timestamp;pressure;altitude;pressure_sealevel;temperature;humidity
52983;BME280;48698;45.736;13.926;2023-04-08T00:02:46;97446.19;;;0.87;100.00
52983;BME280;48698;45.736;13.926;2023-04-08T00:07:49;97309.25;;;-0.08;100.00
52983;BME280;48698;45.736;13.926;2023-04-08T00:13:02;97572.44;;;1.50;100.00
52983;BME280;48698;45.736;13.926;2023-04-08T00:18:05;97597.50;;;1.65;100.00
52983;BME280;48698;45.736;13.926;2023-04-08T00:23:09;97499.09;;;1.03;100.00
52983;BME280;48698;45.736;13.926;2023-04-08T00:28:13;97584.28;;;1.73;100.00
52983;BME280;48698;45.736;13.926;2023-04-08T00:33:15;97425.09;;;0.46;100.00
52983;BME280;48698;45.736;13.926;2023-04-08T00:38:18;97392.50;;;0.12;100.00
52983;BME280;48698;45.736;13.926;2023-04-08T00:43:21;97552.25;;;1.05;100.00
52983;BME280;48698;45.736;13.926;2023-04-08T00:48:24;97539.97;;;1.10;100.00
52983;BME280;48698;45.736;13.926;2023-04-08T00:53:29;97350.59;;;0.19;100.00
52983;BME280;48698;45.736;13.926;2023-04-08T00:58:32;97581.00;;;1.62;100.00
52983;BME280;48698;45.736;13.926;2023-04-08T01:03:57;97553.41;;;0.86;100.00
52983;BME280;48698;45.736;13.926;2023-04-08T01:09:04;97458.22;;;0.41;100.00
52983;BME280;48698;45.736;13.926;2023-04-08T01:14:08;97530.56;;;0.97;100.00
52983;BME280;48698;45.736;13.926;2023-04-08T01:19:26;97500.63;;;0.61;100.00
52983;BME280;48698;45.736;13.926;2023-04-08T01:24:32;97578.97;;;1.24;100.00
52983;BME280;48698;45.736;13.926;2023-04-08T01:29:38;97528.72;;;1.05;100.00
52983;BME280;48698;45.736;13.926;2023-04-08T01:34:42;97530.97;;;0.73;100.00
52983;BME280;48698;45.736;13.926;2023-04-08T01:39:47;97505.75;;;0.69;100.00
52983;BME280;48698;45.736;13.926;2023-04-08T01:45:02;97485.28;;;0.37;100.00
52983;BME280;48698;45.736;13.926;2023-04-08T01:50:16;97567.22;;;0.94;100.00
52983;BME280;48698;45.736;13.926;2023-04-08T01:55:20;97557.69;;;0.90;100.00
52983;BME280;48698;45.736;13.926;2023-04-08T02:00:25;97563.94;;;0.81;100.00
52983;BME280;48698;45.736;13.926;2023-04-08T02:05:29;97426.53;;;0.04;100.00
52983;BME280;48698;45.736;13.926;2023-04-08T02:10:31;97244.72;;;-1.27;100.00
52983;BME280;48698;45.736;13.926;2023-04-08T02:15:37;97556.38;;;0.62;100.00
52983;BME280;48698;45.736;13.926;2023-04-08T02:20:56;97521.09;;;0.27;100.00
52983;BME280;48698;45.736;13.926;2023-04-08T02:26:02;97504.22;;;-0.16;100.00
52983;BME280;48698;45.736;13.926;2023-04-08T02:31:09;97562.78;;;0.38;100.00
52983;BME280;48698;45.736;13.926;2023-04-08T02:36:15;97562.81;;;0.36;100.00
52983;BME280;48698;45.736;13.926;2023-04-08T02:41:18;97335.50;;;-0.87;100.00
52983;BME280;48698;45.736;13.926;2023-04-08T02:46:22;97413.28;;;-0.46;100.00
52983;BME280;48698;45.736;13.926;2023-04-08T02:51:25;97533.03;;;0.48;100.00
52983;BME280;48698;45.736;13.926;2023-04-08T02:56:29;97402.16;;;0.04;100.00
52983;BME280;48698;45.736;13.926;2023-04-08T03:01:31;97491.16;;;0.52;100.00
52983;BME280;48698;45.736;13.926;2023-04-08T03:06:34;97420.00;;;0.34;100.00
52983;BME280;48698;45.736;13.926;2023-04-08T03:11:38;97371.88;;;-0.10;100.00
52983;BME280;48698;45.736;13.926;2023-04-08T03:16:41;97356.94;;;0.03;100.00
52983;BME280;48698;45.736;13.926;2023-04-08T03:21:44;97509.59;;;1.00;100.00
52983;BME280;48698;45.736;13.926;2023-04-08T03:26:47;97335.31;;;-0.07;100.00
52983;BME280;48698;45.736;13.926;2023-04-08T03:31:49;97539.72;;;1.25;100.00
52983;BME280;48698;45.736;13.926;2023-04-08T03:36:52;97539.91;;;1.13;100.00
52983;BME280;48698;45.736;13.926;2023-04-08T03:41:56;97457.09;;;0.59;100.00
52983;BME280;48698;45.736;13.926;2023-04-08T03:46:58;97432.63;;;0.66;100.00
52983;BME280;48698;45.736;13.926;2023-04-08T03:52:01;97556.09;;;1.36;100.00
52983;BME280;48698;45.736;13.926;2023-04-08T03:57:14;97454.16;;;0.80;100.00
52983;BME280;48698;45.736;13.926;2023-04-08T04:02:17;97404.75;;;0.65;100.00
52983;BME280;48698;45.736;13.926;2023-04-08T04:07:20;97564.59;;;1.50;100.00
52983;BME280;48698;45.736;13.926;2023-04-08T04:12:23;97417.56;;;0.80;100.00
52983;BME280;48698;45.736;13.926;2023-04-08T04:17:26;97530.00;;;1.33;100.00
52983;BME280;48698;45.736;13.926;2023-04-08T04:22:39;97508.13;;;1.37;100.00
52983;BME280;48698;45.736;13.926;2023-04-08T04:27:42;97565.41;;;1.55;100.00
52983;BME280;48698;45.736;13.926;2023-04-08T04:32:45;97535.50;;;1.17;100.00
52983;BME280;48698;45.736;13.926;2023-04-08T04:37:48;97400.75;;;0.42;100.00
52983;BME280;48698;45.736;13.926;2023-04-08T04:42:58;97519.75;;;1.20;100.00
52983;BME280;48698;45.736;13.926;2023-04-08T04:48:01;97556.44;;;1.67;100.00
52983;BME280;48698;45.736;13.926;2023-04-08T04:53:05;97547.72;;;1.67;100.00
52983;BME280;48698;45.736;13.926;2023-04-08T04:58:08;97353.25;;;0.70;100.00
52983;BME280;48698;45.736;13.926;2023-04-08T05:03:18;97211.19;;;-0.24;100.00
52983;BME280;48698;45.736;13.926;2023-04-08T05:08:23;97494.81;;;1.49;100.00
52983;BME280;48698;45.736;13.926;2023-04-08T05:13:31;97564.63;;;1.98;100.00
52983;BME280;48698;45.736;13.926;2023-04-08T05:18:34;97438.59;;;1.24;100.00
52983;BME280;48698;45.736;13.926;2023-04-08T05:23:36;97448.63;;;1.48;100.00
52983;BME280;48698;45.736;13.926;2023-04-08T05:28:39;97467.56;;;1.61;100.00
52983;BME280;48698;45.736;13.926;2023-04-08T05:33:42;97524.94;;;2.18;100.00
52983;BME280;48698;45.736;13.926;2023-04-08T05:38:44;97465.09;;;1.98;100.00
52983;BME280;48698;45.736;13.926;2023-04-08T05:43:57;97507.59;;;2.53;100.00
52983;BME280;48698;45.736;13.926;2023-04-08T05:49:10;97527.75;;;2.90;100.00
52983;BME280;48698;45.736;13.926;2023-04-08T05:54:13;97574.53;;;3.46;100.00
52983;BME280;48698;45.736;13.926;2023-04-08T05:59:16;97471.47;;;3.03;100.00
52983;BME280;48698;45.736;13.926;2023-04-08T06:04:19;97433.72;;;3.08;100.00
52983;BME280;48698;45.736;13.926;2023-04-08T06:09:25;97584.53;;;4.32;100.00
52983;BME280;48698;45.736;13.926;2023-04-08T06:14:28;97434.59;;;3.43;100.00
52983;BME280;48698;45.736;13.926;2023-04-08T06:19:32;97566.72;;;4.43;100.00
52983;BME280;48698;45.736;13.926;2023-04-08T06:24:35;97571.53;;;4.88;100.00
52983;BME280;48698;45.736;13.926;2023-04-08T06:29:37;97466.25;;;4.32;100.00
52983;BME280;48698;45.736;13.926;2023-04-08T06:34:47;97365.78;;;3.93;100.00
52983;BME280;48698;45.736;13.926;2023-04-08T06:39:50;97492.13;;;4.75;100.00
52983;BME280;48698;45.736;13.926;2023-04-08T06:44:53;97433.19;;;4.81;100.00
52983;BME280;48698;45.736;13.926;2023-04-08T06:49:55;97255.56;;;3.89;100.00
52983;BME280;48698;45.736;13.926;2023-04-08T06:54:59;97481.28;;;5.40;100.00
52983;BME280;48698;45.736;13.926;2023-04-08T07:00:02;97352.44;;;4.83;100.00
52983;BME280;48698;45.736;13.926;2023-04-08T07:05:06;97451.31;;;5.68;100.00
52983;BME280;48698;45.736;13.926;2023-04-08T07:10:11;97476.28;;;5.83;100.00
52983;BME280;48698;45.736;13.926;2023-04-08T07:15:14;97566.09;;;6.76;100.00
52983;BME280;48698;45.736;13.926;2023-04-08T07:20:18;97555.13;;;6.63;100.00
52983;BME280;48698;45.736;13.926;2023-04-08T07:25:20;97547.63;;;7.21;100.00
52983;BME280;48698;45.736;13.926;2023-04-08T07:30:23;97395.50;;;7.17;100.00
52983;BME280;48698;45.736;13.926;2023-04-08T07:35:27;97569.97;;;8.80;100.00
52983;BME280;48698;45.736;13.926;2023-04-08T07:40:30;97583.31;;;9.34;100.00
52983;BME280;48698;45.736;13.926;2023-04-08T07:45:33;97505.03;;;9.27;100.00
52983;BME280;48698;45.736;13.926;2023-04-08T07:50:36;97562.25;;;10.03;100.00
52983;BME280;48698;45.736;13.926;2023-04-08T07:56:00;97595.72;;;10.92;96.01
52983;BME280;48698;45.736;13.926;2023-04-08T08:01:03;97592.00;;;11.27;93.32
52983;BME280;48698;45.736;13.926;2023-04-08T08:06:06;97586.38;;;11.49;89.20
52983;BME280;48698;45.736;13.926;2023-04-08T08:11:09;97495.94;;;10.70;85.08
52983;BME280;48698;45.736;13.926;2023-04-08T08:16:12;97347.25;;;10.22;80.17
52983;BME280;48698;45.736;13.926;2023-04-08T08:21:16;97611.97;;;11.98;67.16
52983;BME280;48698;45.736;13.926;2023-04-08T08:26:21;97541.38;;;12.07;61.01
52983;BME280;48698;45.736;13.926;2023-04-08T08:31:24;97544.25;;;11.88;58.43
52983;BME280;48698;45.736;13.926;2023-04-08T08:36:27;97496.28;;;11.89;77.96
52983;BME280;48698;45.736;13.926;2023-04-08T08:41:32;97611.91;;;12.89;77.33
52983;BME280;48698;45.736;13.926;2023-04-08T08:46:43;97484.38;;;11.65;69.40
52983;BME280;48698;45.736;13.926;2023-04-08T08:51:47;97597.56;;;12.32;64.72
52983;BME280;48698;45.736;13.926;2023-04-08T08:56:50;97522.41;;;12.27;63.39
52983;BME280;48698;45.736;13.926;2023-04-08T09:01:54;97364.38;;;11.56;57.82
52983;BME280;48698;45.736;13.926;2023-04-08T09:07:10;97531.13;;;12.44;59.16
52983;BME280;48698;45.736;13.926;2023-04-08T09:12:15;97613.88;;;13.00;55.01
52983;BME280;48698;45.736;13.926;2023-04-08T09:17:38;97626.97;;;13.32;57.72
52983;BME280;48698;45.736;13.926;2023-04-08T09:23:01;97537.31;;;13.58;54.89
52983;BME280;48698;45.736;13.926;2023-04-08T09:28:20;97447.47;;;13.18;55.12
52983;BME280;48698;45.736;13.926;2023-04-08T09:33:29;97636.97;;;14.39;58.12
52983;BME280;48698;45.736;13.926;2023-04-08T09:38:33;97621.97;;;13.69;55.56
52983;BME280;48698;45.736;13.926;2023-04-08T09:43:47;97627.97;;;14.54;54.53
52983;BME280;48698;45.736;13.926;2023-04-08T09:49:03;97588.94;;;14.25;51.24
52983;BME280;48698;45.736;13.926;2023-04-08T09:54:12;97542.06;;;13.53;51.93
52983;BME280;48698;45.736;13.926;2023-04-08T09:59:19;97532.69;;;13.05;52.57
52983;BME280;48698;45.736;13.926;2023-04-08T10:04:27;97630.50;;;13.61;54.92
52983;BME280;48698;45.736;13.926;2023-04-08T10:09:32;97514.81;;;13.21;52.77
52983;BME280;48698;45.736;13.926;2023-04-08T10:25:46;97506.16;;;14.25;53.22
52983;BME280;48698;45.736;13.926;2023-04-08T10:30:52;97545.25;;;15.65;54.34
52983;BME280;48698;45.736;13.926;2023-04-08T10:36:10;97591.97;;;15.48;55.15
52983;BME280;48698;45.736;13.926;2023-04-08T10:41:23;97556.69;;;14.92;47.17
52983;BME280;48698;45.736;13.926;2023-04-08T10:46:26;97606.31;;;15.34;49.63
52983;BME280;48698;45.736;13.926;2023-04-08T10:51:31;97310.53;;;12.92;48.15
52983;BME280;48698;45.736;13.926;2023-04-08T10:56:43;97547.69;;;14.29;50.96
52983;BME280;48698;45.736;13.926;2023-04-08T11:01:53;97576.56;;;14.63;49.14
52983;BME280;48698;45.736;13.926;2023-04-08T11:06:57;97625.13;;;14.82;49.34
52983;BME280;48698;45.736;13.926;2023-04-08T11:12:01;97372.25;;;13.13;49.23
52983;BME280;48698;45.736;13.926;2023-04-08T11:17:06;97557.63;;;14.27;51.06
52983;BME280;48698;45.736;13.926;2023-04-08T11:22:14;97351.72;;;12.86;50.28
52983;BME280;48698;45.736;13.926;2023-04-08T11:27:18;97599.63;;;14.52;50.41
52983;BME280;48698;45.736;13.926;2023-04-08T11:32:22;97314.81;;;12.80;52.04
52983;BME280;48698;45.736;13.926;2023-04-08T11:37:25;97300.38;;;12.70;52.27
52983;BME280;48698;45.736;13.926;2023-04-08T11:42:31;97615.59;;;14.39;54.19
52983;BME280;48698;45.736;13.926;2023-04-08T11:47:35;97556.91;;;14.25;53.25
52983;BME280;48698;45.736;13.926;2023-04-08T11:52:49;97609.94;;;14.17;54.01
52983;BME280;48698;45.736;13.926;2023-04-08T11:57:53;97555.94;;;13.72;54.64
52983;BME280;48698;45.736;13.926;2023-04-08T12:02:56;97606.47;;;14.68;55.20
52983;BME280;48698;45.736;13.926;2023-04-08T12:07:59;97559.66;;;14.50;56.37
52983;BME280;48698;45.736;13.926;2023-04-08T12:13:02;97375.81;;;13.26;56.55
52983;BME280;48698;45.736;13.926;2023-04-08T12:18:07;97557.13;;;14.74;56.36
52983;BME280;48698;45.736;13.926;2023-04-08T12:23:10;97420.63;;;13.99;57.41
52983;BME280;48698;45.736;13.926;2023-04-08T12:28:12;97514.63;;;14.05;58.76
52983;BME280;48698;45.736;13.926;2023-04-08T12:33:16;97386.75;;;13.09;58.44
52983;BME280;48698;45.736;13.926;2023-04-08T12:38:24;97606.25;;;14.32;60.46
52983;BME280;48698;45.736;13.926;2023-04-08T12:43:29;97570.78;;;13.76;60.36
52983;BME280;48698;45.736;13.926;2023-04-08T12:48:34;97306.00;;;12.25;62.66
52983;BME280;48698;45.736;13.926;2023-04-08T12:53:37;97571.81;;;13.88;59.52
52983;BME280;48698;45.736;13.926;2023-04-08T12:58:53;97581.69;;;13.59;59.80
52983;BME280;48698;45.736;13.926;2023-04-08T13:03:57;97537.06;;;13.20;61.22
52983;BME280;48698;45.736;13.926;2023-04-08T13:09:00;97500.06;;;13.42;61.56
52983;BME280;48698;45.736;13.926;2023-04-08T13:14:03;97510.88;;;13.94;60.97
52983;BME280;48698;45.736;13.926;2023-04-08T13:19:16;97510.56;;;13.72;61.08
52983;BME280;48698;45.736;13.926;2023-04-08T13:24:19;97431.72;;;13.54;60.34
52983;BME280;48698;45.736;13.926;2023-04-08T13:29:21;97506.53;;;13.53;60.11
52983;BME280;48698;45.736;13.926;2023-04-08T13:34:26;97594.03;;;13.88;63.00
52983;BME280;48698;45.736;13.926;2023-04-08T13:39:29;97381.66;;;12.63;62.91
52983;BME280;48698;45.736;13.926;2023-04-08T13:44:43;97385.84;;;12.81;62.06
52983;BME280;48698;45.736;13.926;2023-04-08T13:49:46;97445.25;;;12.69;64.06
52983;BME280;48698;45.736;13.926;2023-04-08T13:54:49;97416.41;;;12.76;63.22
52983;BME280;48698;45.736;13.926;2023-04-08T14:00:03;97425.31;;;12.89;63.15
52983;BME280;48698;45.736;13.926;2023-04-08T14:05:06;97333.03;;;12.19;64.30
52983;BME280;48698;45.736;13.926;2023-04-08T14:10:10;97536.59;;;13.14;62.89
52983;BME280;48698;45.736;13.926;2023-04-08T14:15:13;97267.47;;;11.46;64.11
52983;BME280;48698;45.736;13.926;2023-04-08T14:20:26;97524.22;;;13.27;65.89
52983;BME280;48698;45.736;13.926;2023-04-08T14:25:28;97486.53;;;12.62;65.53
52983;BME280;48698;45.736;13.926;2023-04-08T14:30:31;97500.13;;;12.86;66.39
52983;BME280;48698;45.736;13.926;2023-04-08T14:35:35;97354.78;;;12.25;66.55
52983;BME280;48698;45.736;13.926;2023-04-08T14:40:38;97525.28;;;13.24;63.69
52983;BME280;48698;45.736;13.926;2023-04-08T14:45:41;97500.13;;;12.86;68.19
52983;BME280;48698;45.736;13.926;2023-04-08T14:50:44;97483.06;;;12.32;67.77
52983;BME280;48698;45.736;13.926;2023-04-08T14:56:02;97605.16;;;13.26;68.67
52983;BME280;48698;45.736;13.926;2023-04-08T15:01:12;97474.06;;;12.77;67.86
52983;BME280;48698;45.736;13.926;2023-04-08T15:06:15;97610.88;;;13.48;67.04
52983;BME280;48698;45.736;13.926;2023-04-08T15:11:20;97580.03;;;13.16;69.65
52983;BME280;48698;45.736;13.926;2023-04-08T15:16:23;97489.00;;;12.51;70.17
52983;BME280;48698;45.736;13.926;2023-04-08T15:21:26;97426.66;;;12.11;82.50
52983;BME280;48698;45.736;13.926;2023-04-08T15:26:29;97316.84;;;9.95;100.00
52983;BME280;48698;45.736;13.926;2023-04-08T15:31:37;97547.31;;;11.02;100.00
52983;BME280;48698;45.736;13.926;2023-04-08T15:36:40;97602.91;;;11.22;100.00
52983;BME280;48698;45.736;13.926;2023-04-08T15:41:46;97593.78;;;11.11;100.00
52983;BME280;48698;45.736;13.926;2023-04-08T15:46:53;97359.06;;;9.49;100.00
52983;BME280;48698;45.736;13.926;2023-04-08T15:51:56;97580.28;;;10.82;100.00
52983;BME280;48698;45.736;13.926;2023-04-08T15:57:11;97338.72;;;9.50;100.00
52983;BME280;48698;45.736;13.926;2023-04-08T16:02:16;97339.25;;;9.56;100.00
52983;BME280;48698;45.736;13.926;2023-04-08T16:07:19;97644.00;;;11.17;100.00
52983;BME280;48698;45.736;13.926;2023-04-08T16:12:22;97600.28;;;10.72;100.00
52983;BME280;48698;45.736;13.926;2023-04-08T16:17:26;97572.63;;;10.76;100.00
52983;BME280;48698;45.736;13.926;2023-04-08T16:22:29;97584.75;;;10.98;100.00
52983;BME280;48698;45.736;13.926;2023-04-08T16:27:32;97508.94;;;10.42;100.00
52983;BME280;48698;45.736;13.926;2023-04-08T16:32:35;97662.53;;;11.34;100.00
52983;BME280;48698;45.736;13.926;2023-04-08T16:37:38;97573.25;;;10.81;100.00
52983;BME280;48698;45.736;13.926;2023-04-08T16:42:41;97616.66;;;10.98;100.00
52983;BME280;48698;45.736;13.926;2023-04-08T16:47:44;97682.63;;;11.07;100.00
52983;BME280;48698;45.736;13.926;2023-04-08T16:52:47;97546.72;;;10.13;100.00
52983;BME280;48698;45.736;13.926;2023-04-08T16:57:51;97544.72;;;10.01;100.00
52983;BME280;48698;45.736;13.926;2023-04-08T17:02:54;97522.84;;;9.96;100.00
52983;BME280;48698;45.736;13.926;2023-04-08T17:07:58;97696.78;;;10.73;100.00
52983;BME280;48698;45.736;13.926;2023-04-08T17:13:11;97693.03;;;10.77;100.00
52983;BME280;48698;45.736;13.926;2023-04-08T17:18:15;97405.94;;;8.77;100.00
52983;BME280;48698;45.736;13.926;2023-04-08T17:23:18;97570.75;;;9.93;100.00
52983;BME280;48698;45.736;13.926;2023-04-08T17:28:21;97636.84;;;10.33;100.00
52983;BME280;48698;45.736;13.926;2023-04-08T17:33:24;97645.91;;;10.80;100.00
52983;BME280;48698;45.736;13.926;2023-04-08T17:38:27;97553.72;;;9.79;100.00
52983;BME280;48698;45.736;13.926;2023-04-08T17:43:30;97636.47;;;10.05;100.00
52983;BME280;48698;45.736;13.926;2023-04-08T17:48:34;97620.47;;;9.70;100.00
52983;BME280;48698;45.736;13.926;2023-04-08T17:53:37;97609.41;;;9.79;100.00
52983;BME280;48698;45.736;13.926;2023-04-08T17:58:41;97712.25;;;10.29;100.00
52983;BME280;48698;45.736;13.926;2023-04-08T18:03:44;97654.34;;;9.82;100.00
52983;BME280;48698;45.736;13.926;2023-04-08T18:08:47;97472.69;;;8.46;100.00
52983;BME280;48698;45.736;13.926;2023-04-08T18:13:50;97759.81;;;9.96;100.00
52983;BME280;48698;45.736;13.926;2023-04-08T18:19:04;97748.41;;;9.75;100.00
52983;BME280;48698;45.736;13.926;2023-04-08T18:24:06;97446.25;;;7.86;100.00
52983;BME280;48698;45.736;13.926;2023-04-08T18:29:19;97764.03;;;9.63;100.00
52983;BME280;48698;45.736;13.926;2023-04-08T18:34:22;97786.00;;;9.65;100.00
52983;BME280;48698;45.736;13.926;2023-04-08T18:39:26;97792.88;;;9.50;100.00
52983;BME280;48698;45.736;13.926;2023-04-08T18:44:29;97707.69;;;9.19;100.00
52983;BME280;48698;45.736;13.926;2023-04-08T18:49:42;97806.59;;;9.40;100.00
52983;BME280;48698;45.736;13.926;2023-04-08T18:54:45;97676.75;;;8.60;100.00
52983;BME280;48698;45.736;13.926;2023-04-08T18:59:49;97794.88;;;9.25;100.00
52983;BME280;48698;45.736;13.926;2023-04-08T19:04:53;97758.00;;;9.00;100.00
52983;BME280;48698;45.736;13.926;2023-04-08T19:09:57;97813.63;;;9.20;100.00
52983;BME280;48698;45.736;13.926;2023-04-08T19:15:03;97816.88;;;9.27;100.00
52983;BME280;48698;45.736;13.926;2023-04-08T19:20:07;97633.25;;;8.04;100.00
52983;BME280;48698;45.736;13.926;2023-04-08T19:25:10;97611.00;;;7.88;100.00
52983;BME280;48698;45.736;13.926;2023-04-08T19:30:13;97603.56;;;7.75;100.00
52983;BME280;48698;45.736;13.926;2023-04-08T19:35:25;97790.31;;;8.88;100.00
52983;BME280;48698;45.736;13.926;2023-04-08T19:40:38;97788.50;;;8.89;100.00
52983;BME280;48698;45.736;13.926;2023-04-08T19:45:55;97786.50;;;8.73;100.00
52983;BME280;48698;45.736;13.926;2023-04-08T19:50:58;97537.44;;;7.12;100.00
52983;BME280;48698;45.736;13.926;2023-04-08T19:56:03;97802.91;;;8.61;100.00
52983;BME280;48698;45.736;13.926;2023-04-08T20:01:06;97649.06;;;7.62;100.00
52983;BME280;48698;45.736;13.926;2023-04-08T20:06:11;97688.72;;;7.84;100.00
52983;BME280;48698;45.736;13.926;2023-04-08T20:11:14;97805.59;;;8.38;100.00
52983;BME280;48698;45.736;13.926;2023-04-08T20:16:18;97685.97;;;7.63;100.00
52983;BME280;48698;45.736;13.926;2023-04-08T20:21:21;97650.50;;;7.47;100.00
52983;BME280;48698;45.736;13.926;2023-04-08T20:26:24;97732.28;;;7.73;100.00
52983;BME280;48698;45.736;13.926;2023-04-08T20:31:26;97879.06;;;8.55;100.00
52983;BME280;48698;45.736;13.926;2023-04-08T20:36:46;97839.94;;;8.16;100.00
52983;BME280;48698;45.736;13.926;2023-04-08T20:41:49;97838.03;;;8.20;100.00
52983;BME280;48698;45.736;13.926;2023-04-08T20:46:52;97887.56;;;8.40;100.00
52983;BME280;48698;45.736;13.926;2023-04-08T20:51:56;97559.84;;;6.31;100.00
52983;BME280;48698;45.736;13.926;2023-04-08T20:56:59;97846.56;;;7.82;100.00
52983;BME280;48698;45.736;13.926;2023-04-08T21:02:12;97766.59;;;7.04;100.00
52983;BME280;48698;45.736;13.926;2023-04-08T21:07:15;97888.38;;;7.70;100.00
52983;BME280;48698;45.736;13.926;2023-04-08T21:12:17;97889.81;;;7.79;100.00
52983;BME280;48698;45.736;13.926;2023-04-08T21:17:20;97892.13;;;7.65;100.00
52983;BME280;48698;45.736;13.926;2023-04-08T21:22:24;97889.44;;;7.40;100.00
52983;BME280;48698;45.736;13.926;2023-04-08T21:27:27;97843.56;;;7.18;100.00
52983;BME280;48698;45.736;13.926;2023-04-08T21:32:30;97900.41;;;7.54;100.00
52983;BME280;48698;45.736;13.926;2023-04-08T21:37:34;97823.91;;;7.00;100.00
52983;BME280;48698;45.736;13.926;2023-04-08T21:42:40;97830.59;;;6.86;100.00
52983;BME280;48698;45.736;13.926;2023-04-08T21:47:44;97851.72;;;6.86;100.00
52983;BME280;48698;45.736;13.926;2023-04-08T21:52:47;97838.59;;;6.29;100.00
52983;BME280;48698;45.736;13.926;2023-04-08T21:57:50;97880.22;;;6.19;100.00
52983;BME280;48698;45.736;13.926;2023-04-08T22:02:52;97866.28;;;6.14;100.00
52983;BME280;48698;45.736;13.926;2023-04-08T22:07:56;97843.72;;;5.74;100.00
52983;BME280;48698;45.736;13.926;2023-04-08T22:12:58;97706.50;;;4.93;100.00
52983;BME280;48698;45.736;13.926;2023-04-08T22:18:01;97857.84;;;5.72;100.00
52983;BME280;48698;45.736;13.926;2023-04-08T22:23:06;97876.41;;;5.67;100.00
52983;BME280;48698;45.736;13.926;2023-04-08T22:28:09;97884.88;;;5.48;100.00
52983;BME280;48698;45.736;13.926;2023-04-08T22:33:12;97700.19;;;4.34;100.00
52983;BME280;48698;45.736;13.926;2023-04-08T22:38:15;97934.56;;;5.61;100.00
52983;BME280;48698;45.736;13.926;2023-04-08T22:43:18;97849.16;;;5.05;100.00
52983;BME280;48698;45.736;13.926;2023-04-08T22:48:30;97829.06;;;4.67;100.00
52983;BME280;48698;45.736;13.926;2023-04-08T22:53:34;97928.75;;;5.49;100.00
52983;BME280;48698;45.736;13.926;2023-04-08T22:58:37;97597.13;;;3.52;100.00
52983;BME280;48698;45.736;13.926;2023-04-08T23:03:40;97621.47;;;3.58;100.00
52983;BME280;48698;45.736;13.926;2023-04-08T23:08:43;97622.09;;;3.33;100.00
52983;BME280;48698;45.736;13.926;2023-04-08T23:13:46;97770.41;;;4.29;100.00
52983;BME280;48698;45.736;13.926;2023-04-08T23:18:48;97620.03;;;3.45;100.00
52983;BME280;48698;45.736;13.926;2023-04-08T23:23:52;97737.91;;;3.96;100.00
52983;BME280;48698;45.736;13.926;2023-04-08T23:28:55;97808.88;;;4.68;100.00
52983;BME280;48698;45.736;13.926;2023-04-08T23:33:58;97786.81;;;4.38;100.00
52983;BME280;48698;45.736;13.926;2023-04-08T23:39:01;97866.69;;;5.05;100.00
52983;BME280;48698;45.736;13.926;2023-04-08T23:44:04;97613.44;;;3.66;100.00
52983;BME280;48698;45.736;13.926;2023-04-08T23:49:07;97669.50;;;4.00;100.00
52983;BME280;48698;45.736;13.926;2023-04-08T23:54:10;97724.75;;;4.33;100.00
52983;BME280;48698;45.736;13.926;2023-04-08T23:59:12;97647.13;;;3.84;100.00
